sensor_id;sensor_type;location;lat;lon;timestamp;pressure;altitude;pressure_sealevel;temperature;humidity
11198;BME280;5655;48.744;9.162;2023-02-01T00:00:47;96750.78;;;4.32;100.00
11198;BME280;5655;48.744;9.162;2023-02-01T00:03:12;96752.50;;;4.10;100.00
11198;BME280;5655;48.744;9.162;2023-02-01T00:05:39;96752.69;;;4.23;100.00
11198;BME280;5655;48.744;9.162;2023-02-01T00:08:04;96748.75;;;3.94;100.00
11198;BME280;5655;48.744;9.162;2023-02-01T00:10:33;96757.50;;;4.21;100.00
11198;BME280;5655;48.744;9.162;2023-02-01T00:12:58;96744.41;;;4.16;100.00
11198;BME280;5655;48.744;9.162;2023-02-01T00:15:24;96739.72;;;4.30;100.00
11198;BME280;5655;48.744;9.162;2023-02-01T00:17:53;96734.13;;;4.40;100.00
11198;BME280;5655;48.744;9.162;2023-02-01T00:20:19;96737.53;;;4.15;100.00
11198;BME280;5655;48.744;9.162;2023-02-01T00:22:45;96741.88;;;4.45;100.00
11198;BME280;5655;48.744;9.162;2023-02-01T00:25:10;96736.28;;;4.38;100.00
11198;BME280;5655;48.744;9.162;2023-02-01T00:27:35;96750.78;;;4.15;100.00
11198;BME280;5655;48.744;9.162;2023-02-01T00:30:00;96739.56;;;4.52;100.00
11198;BME280;5655;48.744;9.162;2023-02-01T00:32:26;96746.59;;;4.48;100.00
11198;BME280;5655;48.744;9.162;2023-02-01T00:34:51;96734.25;;;4.61;100.00
11198;BME280;5655;48.744;9.162;2023-02-01T00:37:16;96735.97;;;4.48;100.00
11198;BME280;5655;48.744;9.162;2023-02-01T00:39:42;96734.28;;;4.26;100.00
11198;BME280;5655;48.744;9.162;2023-02-01T00:42:07;96731.31;;;4.28;100.00
11198;BME280;5655;48.744;9.162;2023-02-01T00:44:35;96734.72;;;4.37;100.00
11198;BME280;5655;48.744;9.162;2023-02-01T00:47:01;96726.31;;;4.35;100.00
11198;BME280;5655;48.744;9.162;2023-02-01T00:49:27;96717.75;;;4.21;100.00
11198;BME280;5655;48.744;9.162;2023-02-01T00:51:53;96717.25;;;4.36;100.00
11198;BME280;5655;48.744;9.162;2023-02-01T00:54:18;96728.84;;;4.23;100.00
11198;BME280;5655;48.744;9.162;2023-02-01T00:56:43;96725.38;;;4.48;100.00
11198;BME280;5655;48.744;9.162;2023-02-01T00:59:11;96721.53;;;4.83;100.00
11198;BME280;5655;48.744;9.162;2023-02-01T01:01:37;96726.91;;;4.49;100.00
11198;BME280;5655;48.744;9.162;2023-02-01T01:04:02;96727.72;;;4.32;100.00
11198;BME280;5655;48.744;9.162;2023-02-01T01:06:31;96724.03;;;4.88;100.00
11198;BME280;5655;48.744;9.162;2023-02-01T01:08:59;96724.72;;;4.68;100.00
11198;BME280;5655;48.744;9.162;2023-02-01T01:11:27;96726.41;;;4.81;100.00
11198;BME280;5655;48.744;9.162;2023-02-01T01:13:57;96713.00;;;4.78;100.00
11198;BME280;5655;48.744;9.162;2023-02-01T01:16:25;96712.53;;;4.76;100.00
11198;BME280;5655;48.744;9.162;2023-02-01T01:18:51;96704.19;;;4.48;100.00
11198;BME280;5655;48.744;9.162;2023-02-01T01:21:17;96699.69;;;4.40;100.00
11198;BME280;5655;48.744;9.162;2023-02-01T01:23:45;96708.06;;;4.42;100.00
11198;BME280;5655;48.744;9.162;2023-02-01T01:26:20;96697.09;;;4.78;100.00
11198;BME280;5655;48.744;9.162;2023-02-01T01:28:46;96704.25;;;4.86;100.00
11198;BME280;5655;48.744;9.162;2023-02-01T01:31:13;96714.72;;;4.82;100.00
11198;BME280;5655;48.744;9.162;2023-02-01T01:33:38;96718.81;;;4.54;100.00
11198;BME280;5655;48.744;9.162;2023-02-01T01:36:05;96724.38;;;4.78;100.00
11198;BME280;5655;48.744;9.162;2023-02-01T01:38:31;96713.28;;;4.85;100.00
11198;BME280;5655;48.744;9.162;2023-02-01T01:40:56;96713.97;;;4.56;100.00
11198;BME280;5655;48.744;9.162;2023-02-01T01:43:22;96709.88;;;4.76;100.00
11198;BME280;5655;48.744;9.162;2023-02-01T01:45:48;96705.91;;;4.99;100.00
11198;BME280;5655;48.744;9.162;2023-02-01T01:48:23;96710.59;;;4.93;100.00
11198;BME280;5655;48.744;9.162;2023-02-01T01:51:11;96700.84;;;5.15;100.00
11198;BME280;5655;48.744;9.162;2023-02-01T01:53:42;96705.22;;;5.11;100.00
11198;BME280;5655;48.744;9.162;2023-02-01T01:56:10;96693.94;;;4.84;100.00
11198;BME280;5655;48.744;9.162;2023-02-01T01:58:36;96699.50;;;5.38;100.00
11198;BME280;5655;48.744;9.162;2023-02-01T02:01:04;96691.88;;;4.98;100.00
11198;BME280;5655;48.744;9.162;2023-02-01T02:03:42;96694.28;;;5.21;100.00
11198;BME280;5655;48.744;9.162;2023-02-01T02:06:15;96681.22;;;5.36;100.00
11198;BME280;5655;48.744;9.162;2023-02-01T02:08:45;96687.22;;;4.95;100.00
11198;BME280;5655;48.744;9.162;2023-02-01T02:11:12;96693.34;;;5.17;100.00
11198;BME280;5655;48.744;9.162;2023-02-01T02:13:45;96692.47;;;5.04;100.00
11198;BME280;5655;48.744;9.162;2023-02-01T02:16:40;96674.69;;;5.05;100.00
11198;BME280;5655;48.744;9.162;2023-02-01T02:27:22;96681.25;;;4.98;100.00
11198;BME280;5655;48.744;9.162;2023-02-01T02:37:44;96660.41;;;4.80;100.00
11198;BME280;5655;48.744;9.162;2023-02-01T02:40:25;96671.47;;;5.20;100.00
11198;BME280;5655;48.744;9.162;2023-02-01T02:46:39;96667.22;;;5.27;100.00
11198;BME280;5655;48.744;9.162;2023-02-01T02:49:39;96666.34;;;5.15;100.00
11198;BME280;5655;48.744;9.162;2023-02-01T02:52:15;96670.31;;;5.38;100.00
11198;BME280;5655;48.744;9.162;2023-02-01T02:55:02;96658.25;;;5.11;100.00
11198;BME280;5655;48.744;9.162;2023-02-01T02:57:36;96651.16;;;4.94;100.00
11198;BME280;5655;48.744;9.162;2023-02-01T03:00:29;96658.00;;;5.04;100.00
11198;BME280;5655;48.744;9.162;2023-02-01T03:03:15;96652.53;;;5.00;100.00
11198;BME280;5655;48.744;9.162;2023-02-01T03:05:59;96646.03;;;4.89;100.00
11198;BME280;5655;48.744;9.162;2023-02-01T03:08:27;96639.88;;;4.68;100.00
11198;BME280;5655;48.744;9.162;2023-02-01T03:16:36;96652.47;;;5.18;100.00
11198;BME280;5655;48.744;9.162;2023-02-01T03:19:15;96661.13;;;4.97;100.00
11198;BME280;5655;48.744;9.162;2023-02-01T03:21:57;96647.66;;;4.73;100.00
11198;BME280;5655;48.744;9.162;2023-02-01T03:24:36;96646.03;;;5.19;100.00
11198;BME280;5655;48.744;9.162;2023-02-01T03:27:20;96652.91;;;5.20;100.00
11198;BME280;5655;48.744;9.162;2023-02-01T03:29:51;96649.56;;;5.02;100.00
11198;BME280;5655;48.744;9.162;2023-02-01T03:32:19;96635.16;;;4.82;100.00
11198;BME280;5655;48.744;9.162;2023-02-01T03:34:47;96634.28;;;4.99;100.00
11198;BME280;5655;48.744;9.162;2023-02-01T03:37:22;96620.75;;;4.92;100.00
11198;BME280;5655;48.744;9.162;2023-02-01T03:39:56;96622.50;;;4.79;100.00
11198;BME280;5655;48.744;9.162;2023-02-01T03:42:28;96613.16;;;4.82;100.00
11198;BME280;5655;48.744;9.162;2023-02-01T03:45:07;96610.47;;;4.90;100.00
11198;BME280;5655;48.744;9.162;2023-02-01T03:47:38;96614.81;;;4.95;100.00
11198;BME280;5655;48.744;9.162;2023-02-01T03:50:11;96617.13;;;4.96;100.00
11198;BME280;5655;48.744;9.162;2023-02-01T03:52:54;96614.78;;;5.03;100.00
11198;BME280;5655;48.744;9.162;2023-02-01T03:55:23;96610.91;;;4.92;100.00
11198;BME280;5655;48.744;9.162;2023-02-01T04:00:28;96608.06;;;4.68;100.00
11198;BME280;5655;48.744;9.162;2023-02-01T04:02:53;96615.13;;;4.93;100.00
11198;BME280;5655;48.744;9.162;2023-02-01T04:05:20;96618.88;;;4.92;100.00
11198;BME280;5655;48.744;9.162;2023-02-01T04:07:46;96616.59;;;4.82;100.00
11198;BME280;5655;48.744;9.162;2023-02-01T04:10:12;96603.66;;;5.10;100.00
11198;BME280;5655;48.744;9.162;2023-02-01T04:12:38;96613.88;;;4.62;100.00
11198;BME280;5655;48.744;9.162;2023-02-01T04:15:04;96608.50;;;5.08;100.00
11198;BME280;5655;48.744;9.162;2023-02-01T04:17:30;96606.63;;;5.09;100.00
11198;BME280;5655;48.744;9.162;2023-02-01T04:19:55;96622.16;;;5.19;100.00
11198;BME280;5655;48.744;9.162;2023-02-01T04:22:21;96626.38;;;5.20;100.00
11198;BME280;5655;48.744;9.162;2023-02-01T04:24:46;96639.38;;;5.13;100.00
11198;BME280;5655;48.744;9.162;2023-02-01T04:27:11;96632.22;;;4.67;100.00
11198;BME280;5655;48.744;9.162;2023-02-01T04:29:37;96644.69;;;5.13;100.00
11198;BME280;5655;48.744;9.162;2023-02-01T04:32:03;96637.16;;;5.15;100.00
11198;BME280;5655;48.744;9.162;2023-02-01T04:34:28;96637.59;;;5.25;100.00
11198;BME280;5655;48.744;9.162;2023-02-01T04:36:53;96639.91;;;5.27;100.00
11198;BME280;5655;48.744;9.162;2023-02-01T04:39:22;96622.28;;;5.22;100.00
11198;BME280;5655;48.744;9.162;2023-02-01T04:41:47;96622.59;;;5.00;100.00
11198;BME280;5655;48.744;9.162;2023-02-01T04:44:14;96632.16;;;5.22;100.00
11198;BME280;5655;48.744;9.162;2023-02-01T04:46:41;96618.41;;;4.90;100.00
11198;BME280;5655;48.744;9.162;2023-02-01T04:49:11;96625.19;;;5.09;100.00
11198;BME280;5655;48.744;9.162;2023-02-01T04:51:36;96629.38;;;5.10;100.00
11198;BME280;5655;48.744;9.162;2023-02-01T04:54:02;96636.59;;;5.00;100.00
11198;BME280;5655;48.744;9.162;2023-02-01T04:56:27;96630.06;;;5.27;100.00
11198;BME280;5655;48.744;9.162;2023-02-01T04:58:53;96623.72;;;5.20;100.00
11198;BME280;5655;48.744;9.162;2023-02-01T05:01:19;96609.69;;;5.19;100.00
11198;BME280;5655;48.744;9.162;2023-02-01T05:03:44;96602.25;;;5.13;100.00
11198;BME280;5655;48.744;9.162;2023-02-01T05:06:10;96596.53;;;5.23;100.00
11198;BME280;5655;48.744;9.162;2023-02-01T05:08:35;96608.34;;;5.34;100.00
11198;BME280;5655;48.744;9.162;2023-02-01T05:11:00;96619.88;;;5.38;100.00
11198;BME280;5655;48.744;9.162;2023-02-01T05:13:28;96620.13;;;5.66;100.00
11198;BME280;5655;48.744;9.162;2023-02-01T05:16:12;96623.75;;;5.40;100.00
11198;BME280;5655;48.744;9.162;2023-02-01T05:18:37;96627.22;;;5.32;100.00
11198;BME280;5655;48.744;9.162;2023-02-01T05:21:02;96616.22;;;5.22;100.00
11198;BME280;5655;48.744;9.162;2023-02-01T05:23:28;96630.50;;;5.09;100.00
11198;BME280;5655;48.744;9.162;2023-02-01T05:25:58;96625.53;;;5.28;100.00
11198;BME280;5655;48.744;9.162;2023-02-01T05:28:24;96625.53;;;5.28;100.00
11198;BME280;5655;48.744;9.162;2023-02-01T05:30:49;96620.72;;;5.30;100.00
11198;BME280;5655;48.744;9.162;2023-02-01T05:33:15;96620.66;;;5.38;100.00
11198;BME280;5655;48.744;9.162;2023-02-01T05:35:40;96621.91;;;5.12;100.00
11198;BME280;5655;48.744;9.162;2023-02-01T05:38:05;96623.16;;;5.06;100.00
11198;BME280;5655;48.744;9.162;2023-02-01T05:40:31;96622.34;;;5.14;100.00
11198;BME280;5655;48.744;9.162;2023-02-01T05:42:56;96635.44;;;5.19;100.00
11198;BME280;5655;48.744;9.162;2023-02-01T05:45:21;96644.31;;;5.23;100.00
11198;BME280;5655;48.744;9.162;2023-02-01T05:47:46;96632.81;;;5.10;100.00
11198;BME280;5655;48.744;9.162;2023-02-01T05:50:12;96637.41;;;5.30;100.00
11198;BME280;5655;48.744;9.162;2023-02-01T05:52:37;96632.69;;;5.07;100.00
11198;BME280;5655;48.744;9.162;2023-02-01T05:55:03;96632.09;;;5.01;100.00
11198;BME280;5655;48.744;9.162;2023-02-01T05:57:28;96635.81;;;5.09;100.00
11198;BME280;5655;48.744;9.162;2023-02-01T05:59:55;96636.69;;;4.83;100.00
11198;BME280;5655;48.744;9.162;2023-02-01T06:02:22;96624.94;;;4.93;100.00
11198;BME280;5655;48.744;9.162;2023-02-01T06:04:49;96625.38;;;5.03;100.00
11198;BME280;5655;48.744;9.162;2023-02-01T06:07:14;96642.56;;;4.97;100.00
11198;BME280;5655;48.744;9.162;2023-02-01T06:09:40;96620.91;;;4.95;100.00
11198;BME280;5655;48.744;9.162;2023-02-01T06:12:05;96608.34;;;4.75;100.00
11198;BME280;5655;48.744;9.162;2023-02-01T06:14:31;96609.97;;;4.59;100.00
11198;BME280;5655;48.744;9.162;2023-02-01T06:16:56;96606.41;;;4.55;100.00
11198;BME280;5655;48.744;9.162;2023-02-01T06:19:22;96609.97;;;4.59;100.00
11198;BME280;5655;48.744;9.162;2023-02-01T06:21:47;96601.09;;;4.55;100.00
11198;BME280;5655;48.744;9.162;2023-02-01T06:24:13;96602.41;;;4.78;100.00
11198;BME280;5655;48.744;9.162;2023-02-01T06:26:38;96594.16;;;4.71;100.00
11198;BME280;5655;48.744;9.162;2023-02-01T06:29:05;96602.75;;;4.68;100.00
11198;BME280;5655;48.744;9.162;2023-02-01T06:31:31;96591.25;;;4.64;100.00
11198;BME280;5655;48.744;9.162;2023-02-01T06:33:57;96593.28;;;4.58;100.00
11198;BME280;5655;48.744;9.162;2023-02-01T06:36:25;96603.47;;;4.86;100.00
11198;BME280;5655;48.744;9.162;2023-02-01T06:38:50;96599.47;;;5.00;100.00
11198;BME280;5655;48.744;9.162;2023-02-01T06:41:16;96605.09;;;4.70;100.00
11198;BME280;5655;48.744;9.162;2023-02-01T06:43:41;96604.41;;;4.81;100.00
11198;BME280;5655;48.744;9.162;2023-02-01T06:46:09;96615.91;;;4.94;100.00
11198;BME280;5655;48.744;9.162;2023-02-01T06:48:36;96622.72;;;5.03;100.00
11198;BME280;5655;48.744;9.162;2023-02-01T06:51:01;96625.25;;;5.00;100.00
11198;BME280;5655;48.744;9.162;2023-02-01T06:53:27;96621.44;;;5.10;100.00
11198;BME280;5655;48.744;9.162;2023-02-01T06:55:57;96622.47;;;5.46;100.00
11198;BME280;5655;48.744;9.162;2023-02-01T06:58:23;96627.28;;;5.24;100.00
11198;BME280;5655;48.744;9.162;2023-02-01T07:00:49;96633.25;;;5.21;100.00
11198;BME280;5655;48.744;9.162;2023-02-01T07:03:16;96646.97;;;5.52;100.00
11198;BME280;5655;48.744;9.162;2023-02-01T07:05:41;96641.09;;;5.38;100.00
11198;BME280;5655;48.744;9.162;2023-02-01T07:08:09;96639.44;;;5.54;100.00
11198;BME280;5655;48.744;9.162;2023-02-01T07:10:34;96645.88;;;5.44;100.00
11198;BME280;5655;48.744;9.162;2023-02-01T07:13:00;96656.75;;;5.31;100.00
11198;BME280;5655;48.744;9.162;2023-02-01T07:15:25;96655.88;;;5.18;100.00
11198;BME280;5655;48.744;9.162;2023-02-01T07:17:51;96656.19;;;5.46;100.00
11198;BME280;5655;48.744;9.162;2023-02-01T07:20:18;96664.03;;;5.42;100.00
11198;BME280;5655;48.744;9.162;2023-02-01T07:22:44;96663.91;;;5.39;100.00
11198;BME280;5655;48.744;9.162;2023-02-01T07:25:09;96670.38;;;5.50;100.00
11198;BME280;5655;48.744;9.162;2023-02-01T07:27:35;96680.09;;;5.46;100.00
11198;BME280;5655;48.744;9.162;2023-02-01T07:30:00;96678.34;;;5.21;100.00
11198;BME280;5655;48.744;9.162;2023-02-01T07:32:27;96670.00;;;5.31;100.00
11198;BME280;5655;48.744;9.162;2023-02-01T07:34:53;96671.53;;;5.40;100.00
11198;BME280;5655;48.744;9.162;2023-02-01T07:37:18;96684.84;;;5.32;100.00
11198;BME280;5655;48.744;9.162;2023-02-01T07:39:44;96683.75;;;5.33;100.00
11198;BME280;5655;48.744;9.162;2023-02-01T07:42:09;96688.88;;;5.38;100.00
11198;BME280;5655;48.744;9.162;2023-02-01T07:44:34;96677.97;;;5.31;100.00
11198;BME280;5655;48.744;9.162;2023-02-01T07:47:00;96685.75;;;5.36;100.00
11198;BME280;5655;48.744;9.162;2023-02-01T07:49:25;96686.50;;;5.45;100.00
11198;BME280;5655;48.744;9.162;2023-02-01T07:51:50;96686.34;;;5.41;100.00
11198;BME280;5655;48.744;9.162;2023-02-01T07:54:16;96694.75;;;5.52;100.00
11198;BME280;5655;48.744;9.162;2023-02-01T07:56:41;96695.97;;;5.75;100.00
11198;BME280;5655;48.744;9.162;2023-02-01T07:59:06;96687.69;;;5.56;100.00
11198;BME280;5655;48.744;9.162;2023-02-01T08:01:33;96684.63;;;5.66;100.00
11198;BME280;5655;48.744;9.162;2023-02-01T08:04:03;96686.88;;;5.85;100.00
11198;BME280;5655;48.744;9.162;2023-02-01T08:06:30;96679.16;;;5.71;100.00
11198;BME280;5655;48.744;9.162;2023-02-01T08:08:56;96677.88;;;5.48;100.00
11198;BME280;5655;48.744;9.162;2023-02-01T08:11:23;96680.75;;;5.64;100.00
11198;BME280;5655;48.744;9.162;2023-02-01T08:13:49;96692.03;;;5.61;100.00
11198;BME280;5655;48.744;9.162;2023-02-01T08:16:16;96681.53;;;5.43;100.00
11198;BME280;5655;48.744;9.162;2023-02-01T08:18:42;96672.56;;;5.48;100.00
11198;BME280;5655;48.744;9.162;2023-02-01T08:21:14;96675.03;;;5.53;100.00
11198;BME280;5655;48.744;9.162;2023-02-01T08:23:41;96675.03;;;5.53;100.00
11198;BME280;5655;48.744;9.162;2023-02-01T08:26:13;96674.69;;;6.05;100.00
11198;BME280;5655;48.744;9.162;2023-02-01T08:28:41;96660.66;;;5.54;100.00
11198;BME280;5655;48.744;9.162;2023-02-01T08:31:12;96668.16;;;5.81;100.00
11198;BME280;5655;48.744;9.162;2023-02-01T08:33:40;96658.47;;;5.56;100.00
11198;BME280;5655;48.744;9.162;2023-02-01T08:36:10;96677.47;;;5.87;100.00
11198;BME280;5655;48.744;9.162;2023-02-01T08:38:36;96683.53;;;5.67;100.00
11198;BME280;5655;48.744;9.162;2023-02-01T08:41:13;96677.28;;;5.92;100.00
11198;BME280;5655;48.744;9.162;2023-02-01T08:43:39;96693.69;;;5.95;100.00
11198;BME280;5655;48.744;9.162;2023-02-01T08:46:06;96687.91;;;5.92;100.00
11198;BME280;5655;48.744;9.162;2023-02-01T08:48:32;96706.97;;;6.15;100.00
11198;BME280;5655;48.744;9.162;2023-02-01T08:51:01;96698.13;;;6.44;100.00
11198;BME280;5655;48.744;9.162;2023-02-01T08:53:27;96710.28;;;6.33;100.00
11198;BME280;5655;48.744;9.162;2023-02-01T08:55:52;96714.63;;;6.17;100.00
11198;BME280;5655;48.744;9.162;2023-02-01T08:58:17;96714.41;;;6.43;100.00
11198;BME280;5655;48.744;9.162;2023-02-01T09:00:43;96719.16;;;6.37;100.00
11198;BME280;5655;48.744;9.162;2023-02-01T09:03:13;96717.22;;;6.25;100.00
11198;BME280;5655;48.744;9.162;2023-02-01T09:05:38;96707.06;;;6.39;100.00
11198;BME280;5655;48.744;9.162;2023-02-01T09:08:05;96709.19;;;6.34;100.00
11198;BME280;5655;48.744;9.162;2023-02-01T09:10:31;96709.75;;;6.84;100.00
11198;BME280;5655;48.744;9.162;2023-02-01T09:12:56;96717.94;;;6.79;100.00
11198;BME280;5655;48.744;9.162;2023-02-01T09:15:21;96723.47;;;6.74;100.00
11198;BME280;5655;48.744;9.162;2023-02-01T09:17:47;96734.91;;;6.42;100.00
11198;BME280;5655;48.744;9.162;2023-02-01T09:20:12;96733.50;;;6.57;100.00
11198;BME280;5655;48.744;9.162;2023-02-01T09:22:38;96734.44;;;6.40;100.00
11198;BME280;5655;48.744;9.162;2023-02-01T09:25:04;96740.28;;;6.13;100.00
11198;BME280;5655;48.744;9.162;2023-02-01T09:27:29;96732.94;;;6.30;100.00
11198;BME280;5655;48.744;9.162;2023-02-01T09:29:55;96728.69;;;6.17;100.00
11198;BME280;5655;48.744;9.162;2023-02-01T09:32:21;96747.66;;;6.49;100.00
11198;BME280;5655;48.744;9.162;2023-02-01T09:34:48;96746.88;;;6.48;100.00
11198;BME280;5655;48.744;9.162;2023-02-01T09:37:13;96755.97;;;6.26;100.00
11198;BME280;5655;48.744;9.162;2023-02-01T09:39:39;96751.28;;;6.44;100.00
11198;BME280;5655;48.744;9.162;2023-02-01T09:42:35;96736.16;;;6.90;100.00
11198;BME280;5655;48.744;9.162;2023-02-01T09:45:17;96753.88;;;6.53;100.00
11198;BME280;5655;48.744;9.162;2023-02-01T09:47:53;96761.69;;;6.70;100.00
11198;BME280;5655;48.744;9.162;2023-02-01T09:50:31;96751.94;;;7.07;100.00
11198;BME280;5655;48.744;9.162;2023-02-01T09:53:05;96750.44;;;6.85;100.00
11198;BME280;5655;48.744;9.162;2023-02-01T09:55:36;96757.63;;;6.52;100.00
11198;BME280;5655;48.744;9.162;2023-02-01T09:58:16;96763.81;;;7.21;100.00
11198;BME280;5655;48.744;9.162;2023-02-01T10:00:50;96746.56;;;6.82;100.00
11198;BME280;5655;48.744;9.162;2023-02-01T10:03:16;96757.16;;;6.70;100.00
11198;BME280;5655;48.744;9.162;2023-02-01T10:15:28;96757.78;;;7.00;100.00
11198;BME280;5655;48.744;9.162;2023-02-01T10:20:52;96775.47;;;7.17;100.00
11198;BME280;5655;48.744;9.162;2023-02-01T10:26:29;96777.91;;;7.10;100.00
11198;BME280;5655;48.744;9.162;2023-02-01T10:28:58;96784.41;;;7.00;100.00
11198;BME280;5655;48.744;9.162;2023-02-01T10:31:27;96780.25;;;7.11;100.00
11198;BME280;5655;48.744;9.162;2023-02-01T10:33:58;96782.31;;;7.06;100.00
11198;BME280;5655;48.744;9.162;2023-02-01T10:36:34;96776.16;;;7.26;100.00
11198;BME280;5655;48.744;9.162;2023-02-01T10:39:04;96785.47;;;7.32;100.00
11198;BME280;5655;48.744;9.162;2023-02-01T10:41:35;96784.81;;;7.35;100.00
11198;BME280;5655;48.744;9.162;2023-02-01T10:44:03;96786.34;;;7.12;100.00
11198;BME280;5655;48.744;9.162;2023-02-01T10:46:31;96784.66;;;6.74;100.00
11198;BME280;5655;48.744;9.162;2023-02-01T10:49:00;96787.44;;;7.11;100.00
11198;BME280;5655;48.744;9.162;2023-02-01T10:52:01;96791.72;;;7.48;100.00
11198;BME280;5655;48.744;9.162;2023-02-01T10:54:35;96784.75;;;6.99;100.00
11198;BME280;5655;48.744;9.162;2023-02-01T10:57:07;96783.41;;;7.38;100.00
11198;BME280;5655;48.744;9.162;2023-02-01T10:59:34;96775.72;;;7.36;100.00
11198;BME280;5655;48.744;9.162;2023-02-01T11:02:15;96771.72;;;7.30;100.00
11198;BME280;5655;48.744;9.162;2023-02-01T11:04:41;96772.75;;;6.93;100.00
11198;BME280;5655;48.744;9.162;2023-02-01T11:07:20;96770.59;;;7.31;100.00
11198;BME280;5655;48.744;9.162;2023-02-01T11:09:50;96756.41;;;7.27;100.00
11198;BME280;5655;48.744;9.162;2023-02-01T11:12:36;96764.50;;;7.30;100.00
11198;BME280;5655;48.744;9.162;2023-02-01T11:15:23;96753.41;;;7.77;100.00
11198;BME280;5655;48.744;9.162;2023-02-01T11:17:50;96755.41;;;7.32;100.00
11198;BME280;5655;48.744;9.162;2023-02-01T11:20:40;96755.75;;;7.42;100.00
11198;BME280;5655;48.744;9.162;2023-02-01T11:23:18;96751.97;;;7.43;100.00
11198;BME280;5655;48.744;9.162;2023-02-01T11:25:56;96749.63;;;7.29;100.00
11198;BME280;5655;48.744;9.162;2023-02-01T11:28:25;96754.84;;;7.26;100.00
11198;BME280;5655;48.744;9.162;2023-02-01T11:30:55;96761.03;;;7.18;100.00
11198;BME280;5655;48.744;9.162;2023-02-01T11:33:26;96756.63;;;7.22;100.00
11198;BME280;5655;48.744;9.162;2023-02-01T11:35:55;96747.16;;;7.00;100.00
11198;BME280;5655;48.744;9.162;2023-02-01T11:38:30;96741.53;;;7.14;100.00
11198;BME280;5655;48.744;9.162;2023-02-01T11:41:14;96742.88;;;7.32;100.00
11198;BME280;5655;48.744;9.162;2023-02-01T11:43:59;96715.81;;;7.66;100.00
11198;BME280;5655;48.744;9.162;2023-02-01T11:46:31;96711.81;;;7.48;100.00
11198;BME280;5655;48.744;9.162;2023-02-01T11:49:14;96704.50;;;7.45;100.00
11198;BME280;5655;48.744;9.162;2023-02-01T11:52:10;96697.28;;;7.46;100.00
11198;BME280;5655;48.744;9.162;2023-02-01T11:54:51;96698.19;;;7.38;100.00
11198;BME280;5655;48.744;9.162;2023-02-01T12:05:25;96692.50;;;7.51;100.00
11198;BME280;5655;48.744;9.162;2023-02-01T12:11:04;96678.75;;;7.49;100.00
11198;BME280;5655;48.744;9.162;2023-02-01T12:22:00;96663.22;;;7.39;100.00
11198;BME280;5655;48.744;9.162;2023-02-01T12:25:06;96675.63;;;7.47;100.00
11198;BME280;5655;48.744;9.162;2023-02-01T12:27:52;96691.63;;;7.11;100.00
11198;BME280;5655;48.744;9.162;2023-02-01T12:33:13;96699.34;;;6.92;100.00
11198;BME280;5655;48.744;9.162;2023-02-01T12:41:10;96687.09;;;7.23;100.00
11198;BME280;5655;48.744;9.162;2023-02-01T12:43:57;96683.97;;;7.34;100.00
11198;BME280;5655;48.744;9.162;2023-02-01T12:49:10;96689.59;;;6.83;100.00
11198;BME280;5655;48.744;9.162;2023-02-01T12:51:41;96686.09;;;7.16;100.00
11198;BME280;5655;48.744;9.162;2023-02-01T12:54:38;96703.38;;;7.10;100.00
11198;BME280;5655;48.744;9.162;2023-02-01T12:59:53;96694.91;;;6.83;100.00
11198;BME280;5655;48.744;9.162;2023-02-01T13:02:35;96698.94;;;7.14;100.00
11198;BME280;5655;48.744;9.162;2023-02-01T13:05:18;96693.41;;;7.07;100.00
11198;BME280;5655;48.744;9.162;2023-02-01T13:07:56;96696.69;;;6.92;100.00
11198;BME280;5655;48.744;9.162;2023-02-01T13:10:36;96687.03;;;6.99;100.00
11198;BME280;5655;48.744;9.162;2023-02-01T13:15:44;96691.41;;;7.16;100.00
11198;BME280;5655;48.744;9.162;2023-02-01T13:18:16;96690.50;;;7.00;100.00
11198;BME280;5655;48.744;9.162;2023-02-01T13:23:31;96687.28;;;6.94;100.00
11198;BME280;5655;48.744;9.162;2023-02-01T13:26:01;96676.03;;;6.64;100.00
11198;BME280;5655;48.744;9.162;2023-02-01T13:28:29;96686.34;;;6.78;100.00
11198;BME280;5655;48.744;9.162;2023-02-01T13:37:18;96660.00;;;7.09;100.00
11198;BME280;5655;48.744;9.162;2023-02-01T13:39:55;96659.88;;;6.81;100.00
11198;BME280;5655;48.744;9.162;2023-02-01T13:42:30;96655.88;;;6.88;100.00
11198;BME280;5655;48.744;9.162;2023-02-01T13:44:59;96668.41;;;6.99;100.00
11198;BME280;5655;48.744;9.162;2023-02-01T13:47:40;96661.00;;;7.41;100.00
11198;BME280;5655;48.744;9.162;2023-02-01T13:50:21;96671.22;;;7.27;100.00
11198;BME280;5655;48.744;9.162;2023-02-01T13:52:59;96665.88;;;7.27;100.00
11198;BME280;5655;48.744;9.162;2023-02-01T13:55:34;96658.56;;;7.00;100.00
11198;BME280;5655;48.744;9.162;2023-02-01T13:58:05;96664.19;;;6.86;100.00
11198;BME280;5655;48.744;9.162;2023-02-01T14:00:36;96653.47;;;7.07;100.00
11198;BME280;5655;48.744;9.162;2023-02-01T14:21:18;96633.28;;;7.06;100.00
11198;BME280;5655;48.744;9.162;2023-02-01T14:47:46;96655.16;;;6.54;100.00
11198;BME280;5655;48.744;9.162;2023-02-01T15:01:02;96666.53;;;7.00;100.00
11198;BME280;5655;48.744;9.162;2023-02-01T15:08:52;96675.78;;;6.57;100.00
11198;BME280;5655;48.744;9.162;2023-02-01T15:11:19;96671.78;;;6.51;100.00
11198;BME280;5655;48.744;9.162;2023-02-01T15:13:49;96678.94;;;6.96;100.00
11198;BME280;5655;48.744;9.162;2023-02-01T15:16:16;96672.72;;;6.67;100.00
11198;BME280;5655;48.744;9.162;2023-02-01T15:18:42;96680.88;;;6.50;100.00
11198;BME280;5655;48.744;9.162;2023-02-01T15:21:18;96674.97;;;6.90;100.00
11198;BME280;5655;48.744;9.162;2023-02-01T15:23:43;96678.91;;;6.59;100.00
11198;BME280;5655;48.744;9.162;2023-02-01T15:26:11;96687.41;;;6.65;100.00
11198;BME280;5655;48.744;9.162;2023-02-01T15:28:36;96694.34;;;6.45;100.00
11198;BME280;5655;48.744;9.162;2023-02-01T15:31:03;96694.41;;;6.69;100.00
11198;BME280;5655;48.744;9.162;2023-02-01T15:33:31;96687.09;;;6.54;100.00
11198;BME280;5655;48.744;9.162;2023-02-01T15:41:47;96688.78;;;6.71;100.00
11198;BME280;5655;48.744;9.162;2023-02-01T15:46:30;96682.06;;;6.86;100.00
11198;BME280;5655;48.744;9.162;2023-02-01T15:48:57;96682.53;;;6.55;100.00
11198;BME280;5655;48.744;9.162;2023-02-01T15:51:24;96683.00;;;6.69;100.00
11198;BME280;5655;48.744;9.162;2023-02-01T15:54:00;96683.84;;;6.94;100.00
11198;BME280;5655;48.744;9.162;2023-02-01T15:56:37;96678.06;;;6.92;100.00
11198;BME280;5655;48.744;9.162;2023-02-01T15:59:06;96696.56;;;6.76;100.00